sensor_id;sensor_type;location;lat;lon;timestamp;temperature;humidity
20658;DHT22;10488;50.846;4.078;2023-07-29T00:01:30;19.40;99.90
20658;DHT22;10488;50.846;4.078;2023-07-29T00:03:56;19.30;99.90
20658;DHT22;10488;50.846;4.078;2023-07-29T00:06:22;19.30;99.90
20658;DHT22;10488;50.846;4.078;2023-07-29T00:08:47;19.30;99.90
20658;DHT22;10488;50.846;4.078;2023-07-29T00:11:13;19.30;99.90
20658;DHT22;10488;50.846;4.078;2023-07-29T00:13:39;19.20;99.90
20658;DHT22;10488;50.846;4.078;2023-07-29T00:16:04;19.10;99.90
20658;DHT22;10488;50.846;4.078;2023-07-29T00:18:30;19.10;99.90
20658;DHT22;10488;50.846;4.078;2023-07-29T00:20:56;18.90;99.90
20658;DHT22;10488;50.846;4.078;2023-07-29T00:23:23;19.00;99.90
20658;DHT22;10488;50.846;4.078;2023-07-29T00:25:48;19.20;99.90
20658;DHT22;10488;50.846;4.078;2023-07-29T00:28:14;19.20;99.90
20658;DHT22;10488;50.846;4.078;2023-07-29T00:30:39;19.10;99.90
20658;DHT22;10488;50.846;4.078;2023-07-29T00:33:05;19.00;99.90
20658;DHT22;10488;50.846;4.078;2023-07-29T00:35:31;19.00;99.90
20658;DHT22;10488;50.846;4.078;2023-07-29T00:37:56;19.00;99.90
20658;DHT22;10488;50.846;4.078;2023-07-29T00:40:22;19.00;99.90
20658;DHT22;10488;50.846;4.078;2023-07-29T00:42:49;19.00;99.90
20658;DHT22;10488;50.846;4.078;2023-07-29T00:45:15;19.00;99.90
20658;DHT22;10488;50.846;4.078;2023-07-29T00:47:42;18.90;99.90
20658;DHT22;10488;50.846;4.078;2023-07-29T00:50:10;19.00;99.90
20658;DHT22;10488;50.846;4.078;2023-07-29T00:52:36;18.90;99.90
20658;DHT22;10488;50.846;4.078;2023-07-29T00:55:03;18.90;99.90
20658;DHT22;10488;50.846;4.078;2023-07-29T00:57:30;18.80;99.90
20658;DHT22;10488;50.846;4.078;2023-07-29T00:59:56;18.80;99.90
20658;DHT22;10488;50.846;4.078;2023-07-29T01:02:21;18.70;99.90
20658;DHT22;10488;50.846;4.078;2023-07-29T01:04:58;18.70;99.90
20658;DHT22;10488;50.846;4.078;2023-07-29T01:07:35;18.70;99.90
20658;DHT22;10488;50.846;4.078;2023-07-29T01:10:06;18.60;99.90
20658;DHT22;10488;50.846;4.078;2023-07-29T01:12:48;18.50;99.90
20658;DHT22;10488;50.846;4.078;2023-07-29T01:15:26;18.40;99.90
20658;DHT22;10488;50.846;4.078;2023-07-29T01:18:05;18.50;99.90
20658;DHT22;10488;50.846;4.078;2023-07-29T01:20:33;18.60;99.90
20658;DHT22;10488;50.846;4.078;2023-07-29T01:22:59;18.50;99.90
20658;DHT22;10488;50.846;4.078;2023-07-29T01:25:25;18.50;99.90
20658;DHT22;10488;50.846;4.078;2023-07-29T01:27:52;18.40;99.90
20658;DHT22;10488;50.846;4.078;2023-07-29T01:30:20;18.40;99.90
20658;DHT22;10488;50.846;4.078;2023-07-29T01:33:04;18.50;99.90
20658;DHT22;10488;50.846;4.078;2023-07-29T01:35:45;18.40;99.90
20658;DHT22;10488;50.846;4.078;2023-07-29T01:38:21;18.30;99.90
20658;DHT22;10488;50.846;4.078;2023-07-29T01:40:50;18.10;99.90
20658;DHT22;10488;50.846;4.078;2023-07-29T01:43:17;18.10;99.90
20658;DHT22;10488;50.846;4.078;2023-07-29T01:45:44;18.00;99.90
20658;DHT22;10488;50.846;4.078;2023-07-29T01:48:10;17.90;99.90
20658;DHT22;10488;50.846;4.078;2023-07-29T01:50:35;17.90;99.90
20658;DHT22;10488;50.846;4.078;2023-07-29T01:53:01;17.90;99.90
20658;DHT22;10488;50.846;4.078;2023-07-29T01:55:28;18.00;99.90
20658;DHT22;10488;50.846;4.078;2023-07-29T01:57:54;18.00;99.90
20658;DHT22;10488;50.846;4.078;2023-07-29T02:00:21;18.00;99.90
20658;DHT22;10488;50.846;4.078;2023-07-29T02:02:46;17.90;99.90
20658;DHT22;10488;50.846;4.078;2023-07-29T02:05:12;17.90;99.90
20658;DHT22;10488;50.846;4.078;2023-07-29T02:07:38;17.80;99.90
20658;DHT22;10488;50.846;4.078;2023-07-29T02:10:04;17.70;99.90
20658;DHT22;10488;50.846;4.078;2023-07-29T02:12:29;17.70;99.90
20658;DHT22;10488;50.846;4.078;2023-07-29T02:14:55;17.80;99.90
20658;DHT22;10488;50.846;4.078;2023-07-29T02:17:21;17.90;99.90
20658;DHT22;10488;50.846;4.078;2023-07-29T02:19:46;17.80;99.90
20658;DHT22;10488;50.846;4.078;2023-07-29T02:22:16;17.90;99.90
20658;DHT22;10488;50.846;4.078;2023-07-29T02:24:43;17.80;99.90
20658;DHT22;10488;50.846;4.078;2023-07-29T02:27:08;17.90;99.90
20658;DHT22;10488;50.846;4.078;2023-07-29T02:29:34;17.90;99.90
20658;DHT22;10488;50.846;4.078;2023-07-29T02:32:00;17.90;99.90
20658;DHT22;10488;50.846;4.078;2023-07-29T02:34:26;17.80;99.90
20658;DHT22;10488;50.846;4.078;2023-07-29T02:36:51;17.90;99.90
20658;DHT22;10488;50.846;4.078;2023-07-29T02:39:17;18.00;99.90
20658;DHT22;10488;50.846;4.078;2023-07-29T02:41:43;18.00;99.90
20658;DHT22;10488;50.846;4.078;2023-07-29T02:44:08;18.00;99.90
20658;DHT22;10488;50.846;4.078;2023-07-29T02:46:34;18.00;99.90
20658;DHT22;10488;50.846;4.078;2023-07-29T02:49:01;17.90;99.90
20658;DHT22;10488;50.846;4.078;2023-07-29T02:51:26;17.90;99.90
20658;DHT22;10488;50.846;4.078;2023-07-29T02:53:52;17.90;99.90
20658;DHT22;10488;50.846;4.078;2023-07-29T02:56:18;17.90;99.90
20658;DHT22;10488;50.846;4.078;2023-07-29T02:58:43;17.80;99.90
20658;DHT22;10488;50.846;4.078;2023-07-29T03:01:10;17.80;99.90
20658;DHT22;10488;50.846;4.078;2023-07-29T03:03:35;17.90;99.90
20658;DHT22;10488;50.846;4.078;2023-07-29T03:06:06;17.70;99.90
20658;DHT22;10488;50.846;4.078;2023-07-29T03:08:31;17.60;99.90
20658;DHT22;10488;50.846;4.078;2023-07-29T03:10:58;17.40;99.90
20658;DHT22;10488;50.846;4.078;2023-07-29T03:13:23;17.50;99.90
20658;DHT22;10488;50.846;4.078;2023-07-29T03:15:49;17.50;99.90
20658;DHT22;10488;50.846;4.078;2023-07-29T03:18:15;17.60;99.90
20658;DHT22;10488;50.846;4.078;2023-07-29T03:20:41;17.60;99.90
20658;DHT22;10488;50.846;4.078;2023-07-29T03:23:07;17.60;99.90
20658;DHT22;10488;50.846;4.078;2023-07-29T03:25:32;17.70;99.90
20658;DHT22;10488;50.846;4.078;2023-07-29T03:27:58;17.70;99.90
20658;DHT22;10488;50.846;4.078;2023-07-29T03:30:24;17.60;99.90
20658;DHT22;10488;50.846;4.078;2023-07-29T03:32:50;17.60;99.90
20658;DHT22;10488;50.846;4.078;2023-07-29T03:35:16;17.60;99.90
20658;DHT22;10488;50.846;4.078;2023-07-29T03:37:42;17.60;99.90
20658;DHT22;10488;50.846;4.078;2023-07-29T03:40:08;17.50;99.90
20658;DHT22;10488;50.846;4.078;2023-07-29T03:42:35;17.50;99.90
20658;DHT22;10488;50.846;4.078;2023-07-29T03:45:01;17.50;99.90
20658;DHT22;10488;50.846;4.078;2023-07-29T03:47:27;17.50;99.90
20658;DHT22;10488;50.846;4.078;2023-07-29T03:49:53;17.40;99.90
20658;DHT22;10488;50.846;4.078;2023-07-29T03:52:18;17.30;99.90
20658;DHT22;10488;50.846;4.078;2023-07-29T03:54:44;17.20;99.90
20658;DHT22;10488;50.846;4.078;2023-07-29T03:57:09;17.10;99.90
20658;DHT22;10488;50.846;4.078;2023-07-29T03:59:35;17.20;99.90
20658;DHT22;10488;50.846;4.078;2023-07-29T04:02:01;17.20;99.90
20658;DHT22;10488;50.846;4.078;2023-07-29T04:04:26;17.30;99.90
20658;DHT22;10488;50.846;4.078;2023-07-29T04:06:52;17.20;99.90
20658;DHT22;10488;50.846;4.078;2023-07-29T04:09:18;17.10;99.90
20658;DHT22;10488;50.846;4.078;2023-07-29T04:11:43;17.20;99.90
20658;DHT22;10488;50.846;4.078;2023-07-29T04:14:09;17.30;99.90
20658;DHT22;10488;50.846;4.078;2023-07-29T04:16:35;17.50;99.90
20658;DHT22;10488;50.846;4.078;2023-07-29T04:19:00;17.60;99.90
20658;DHT22;10488;50.846;4.078;2023-07-29T04:21:26;17.60;99.90
20658;DHT22;10488;50.846;4.078;2023-07-29T04:23:51;17.40;99.90
20658;DHT22;10488;50.846;4.078;2023-07-29T04:26:17;17.50;99.90
20658;DHT22;10488;50.846;4.078;2023-07-29T04:28:43;17.40;99.90
20658;DHT22;10488;50.846;4.078;2023-07-29T04:31:08;17.50;99.90
20658;DHT22;10488;50.846;4.078;2023-07-29T04:33:34;17.40;99.90
20658;DHT22;10488;50.846;4.078;2023-07-29T04:36:00;17.60;99.90
20658;DHT22;10488;50.846;4.078;2023-07-29T04:38:31;17.70;99.90
20658;DHT22;10488;50.846;4.078;2023-07-29T04:40:58;17.70;99.90
20658;DHT22;10488;50.846;4.078;2023-07-29T04:43:27;17.70;99.90
20658;DHT22;10488;50.846;4.078;2023-07-29T04:45:53;17.60;99.90
20658;DHT22;10488;50.846;4.078;2023-07-29T04:48:19;17.50;99.90
20658;DHT22;10488;50.846;4.078;2023-07-29T04:50:45;17.50;99.90
20658;DHT22;10488;50.846;4.078;2023-07-29T04:53:11;17.50;99.90
20658;DHT22;10488;50.846;4.078;2023-07-29T04:55:37;17.60;99.90
20658;DHT22;10488;50.846;4.078;2023-07-29T04:58:02;17.70;99.90
20658;DHT22;10488;50.846;4.078;2023-07-29T05:00:28;17.70;99.90
20658;DHT22;10488;50.846;4.078;2023-07-29T05:02:53;17.60;99.90
20658;DHT22;10488;50.846;4.078;2023-07-29T05:05:19;17.50;99.90
20658;DHT22;10488;50.846;4.078;2023-07-29T05:07:45;17.50;99.90
20658;DHT22;10488;50.846;4.078;2023-07-29T05:10:10;17.50;99.90
20658;DHT22;10488;50.846;4.078;2023-07-29T05:12:36;17.50;99.90
20658;DHT22;10488;50.846;4.078;2023-07-29T05:15:02;17.50;99.90
20658;DHT22;10488;50.846;4.078;2023-07-29T05:17:28;17.50;99.90
20658;DHT22;10488;50.846;4.078;2023-07-29T05:19:53;17.50;99.90
20658;DHT22;10488;50.846;4.078;2023-07-29T05:22:19;17.60;99.90
20658;DHT22;10488;50.846;4.078;2023-07-29T05:24:45;17.70;99.90
20658;DHT22;10488;50.846;4.078;2023-07-29T05:27:10;17.60;99.90
20658;DHT22;10488;50.846;4.078;2023-07-29T05:29:36;17.60;99.90
20658;DHT22;10488;50.846;4.078;2023-07-29T05:32:02;17.70;99.90
20658;DHT22;10488;50.846;4.078;2023-07-29T05:34:27;17.80;99.90
20658;DHT22;10488;50.846;4.078;2023-07-29T05:36:53;18.00;99.90
20658;DHT22;10488;50.846;4.078;2023-07-29T05:39:19;18.20;99.90
20658;DHT22;10488;50.846;4.078;2023-07-29T05:41:44;18.30;99.90
20658;DHT22;10488;50.846;4.078;2023-07-29T05:44:11;18.40;99.90
20658;DHT22;10488;50.846;4.078;2023-07-29T05:46:36;18.60;99.90
20658;DHT22;10488;50.846;4.078;2023-07-29T05:49:02;18.70;99.90
20658;DHT22;10488;50.846;4.078;2023-07-29T05:51:28;18.90;99.90
20658;DHT22;10488;50.846;4.078;2023-07-29T05:53:54;19.80;99.90
20658;DHT22;10488;50.846;4.078;2023-07-29T05:56:19;20.20;99.90
20658;DHT22;10488;50.846;4.078;2023-07-29T05:58:45;19.90;99.90
20658;DHT22;10488;50.846;4.078;2023-07-29T06:01:10;20.00;99.90
20658;DHT22;10488;50.846;4.078;2023-07-29T06:03:36;20.30;99.90
20658;DHT22;10488;50.846;4.078;2023-07-29T06:06:02;20.30;99.90
20658;DHT22;10488;50.846;4.078;2023-07-29T06:08:27;21.20;99.90
20658;DHT22;10488;50.846;4.078;2023-07-29T06:10:54;21.60;99.90
20658;DHT22;10488;50.846;4.078;2023-07-29T06:13:20;21.60;99.90
20658;DHT22;10488;50.846;4.078;2023-07-29T06:15:45;21.40;99.90
20658;DHT22;10488;50.846;4.078;2023-07-29T06:18:11;21.00;99.90
20658;DHT22;10488;50.846;4.078;2023-07-29T06:20:37;21.40;99.90
20658;DHT22;10488;50.846;4.078;2023-07-29T06:23:03;20.90;99.90
20658;DHT22;10488;50.846;4.078;2023-07-29T06:25:28;21.30;99.90
20658;DHT22;10488;50.846;4.078;2023-07-29T06:27:54;22.20;99.90
20658;DHT22;10488;50.846;4.078;2023-07-29T06:30:20;22.30;99.90
20658;DHT22;10488;50.846;4.078;2023-07-29T06:32:45;22.00;99.90
20658;DHT22;10488;50.846;4.078;2023-07-29T06:35:11;21.70;99.90
20658;DHT22;10488;50.846;4.078;2023-07-29T06:37:37;21.60;99.90
20658;DHT22;10488;50.846;4.078;2023-07-29T06:40:02;21.60;99.90
20658;DHT22;10488;50.846;4.078;2023-07-29T06:42:28;22.00;99.90
20658;DHT22;10488;50.846;4.078;2023-07-29T06:44:54;22.50;99.90
20658;DHT22;10488;50.846;4.078;2023-07-29T06:47:20;22.50;99.90
20658;DHT22;10488;50.846;4.078;2023-07-29T06:49:46;22.80;99.90
20658;DHT22;10488;50.846;4.078;2023-07-29T06:52:11;22.20;99.90
20658;DHT22;10488;50.846;4.078;2023-07-29T06:54:37;22.10;99.90
20658;DHT22;10488;50.846;4.078;2023-07-29T06:57:03;21.60;99.90
20658;DHT22;10488;50.846;4.078;2023-07-29T06:59:29;21.80;99.90
20658;DHT22;10488;50.846;4.078;2023-07-29T07:01:54;21.90;99.90
20658;DHT22;10488;50.846;4.078;2023-07-29T07:04:20;21.50;99.90
20658;DHT22;10488;50.846;4.078;2023-07-29T07:06:45;21.50;99.90
20658;DHT22;10488;50.846;4.078;2023-07-29T07:09:11;21.30;99.90
20658;DHT22;10488;50.846;4.078;2023-07-29T07:11:37;21.00;99.90
20658;DHT22;10488;50.846;4.078;2023-07-29T07:14:02;20.70;99.90
20658;DHT22;10488;50.846;4.078;2023-07-29T07:16:28;20.50;99.90
20658;DHT22;10488;50.846;4.078;2023-07-29T07:18:56;20.30;99.90
20658;DHT22;10488;50.846;4.078;2023-07-29T07:21:22;20.40;99.90
20658;DHT22;10488;50.846;4.078;2023-07-29T07:23:50;20.50;99.90
20658;DHT22;10488;50.846;4.078;2023-07-29T07:26:15;20.70;99.90
20658;DHT22;10488;50.846;4.078;2023-07-29T07:28:41;20.70;99.90
20658;DHT22;10488;50.846;4.078;2023-07-29T07:31:06;20.70;99.90
20658;DHT22;10488;50.846;4.078;2023-07-29T07:33:32;20.80;99.90
20658;DHT22;10488;50.846;4.078;2023-07-29T07:35:58;21.00;99.90
20658;DHT22;10488;50.846;4.078;2023-07-29T07:38:23;21.80;99.90
20658;DHT22;10488;50.846;4.078;2023-07-29T07:40:54;23.20;99.90
20658;DHT22;10488;50.846;4.078;2023-07-29T07:43:20;24.30;99.90
20658;DHT22;10488;50.846;4.078;2023-07-29T07:45:46;24.40;99.90
20658;DHT22;10488;50.846;4.078;2023-07-29T07:48:11;24.80;99.90
20658;DHT22;10488;50.846;4.078;2023-07-29T07:50:38;24.60;99.90
20658;DHT22;10488;50.846;4.078;2023-07-29T07:53:04;24.20;99.90
20658;DHT22;10488;50.846;4.078;2023-07-29T07:55:30;24.50;99.90
20658;DHT22;10488;50.846;4.078;2023-07-29T07:57:55;24.40;99.90
20658;DHT22;10488;50.846;4.078;2023-07-29T08:00:21;24.20;99.90
20658;DHT22;10488;50.846;4.078;2023-07-29T08:02:47;23.90;99.90
20658;DHT22;10488;50.846;4.078;2023-07-29T08:05:12;23.80;99.90
20658;DHT22;10488;50.846;4.078;2023-07-29T08:07:38;23.80;99.90
20658;DHT22;10488;50.846;4.078;2023-07-29T08:10:04;24.00;99.90
20658;DHT22;10488;50.846;4.078;2023-07-29T08:12:30;24.40;99.90
20658;DHT22;10488;50.846;4.078;2023-07-29T08:14:55;24.20;99.90
20658;DHT22;10488;50.846;4.078;2023-07-29T08:17:21;24.30;99.90
20658;DHT22;10488;50.846;4.078;2023-07-29T08:19:47;24.50;99.90
20658;DHT22;10488;50.846;4.078;2023-07-29T08:22:12;24.20;99.90
20658;DHT22;10488;50.846;4.078;2023-07-29T08:24:38;24.20;99.90
20658;DHT22;10488;50.846;4.078;2023-07-29T08:27:04;24.30;99.90
20658;DHT22;10488;50.846;4.078;2023-07-29T08:29:29;23.80;99.90
20658;DHT22;10488;50.846;4.078;2023-07-29T08:31:55;24.50;99.90
20658;DHT22;10488;50.846;4.078;2023-07-29T08:34:21;25.20;99.90
20658;DHT22;10488;50.846;4.078;2023-07-29T08:36:46;25.10;99.90
20658;DHT22;10488;50.846;4.078;2023-07-29T08:39:12;25.20;99.90
20658;DHT22;10488;50.846;4.078;2023-07-29T08:41:45;25.40;99.90
20658;DHT22;10488;50.846;4.078;2023-07-29T08:44:20;25.80;99.90
20658;DHT22;10488;50.846;4.078;2023-07-29T08:46:47;26.30;99.90
20658;DHT22;10488;50.846;4.078;2023-07-29T08:49:14;26.00;99.90
20658;DHT22;10488;50.846;4.078;2023-07-29T08:51:42;26.60;99.90
20658;DHT22;10488;50.846;4.078;2023-07-29T08:54:09;27.30;99.90
20658;DHT22;10488;50.846;4.078;2023-07-29T08:56:36;27.00;99.90
20658;DHT22;10488;50.846;4.078;2023-07-29T08:59:02;27.10;99.90
20658;DHT22;10488;50.846;4.078;2023-07-29T09:01:29;27.10;99.90
20658;DHT22;10488;50.846;4.078;2023-07-29T09:03:56;27.70;99.90
20658;DHT22;10488;50.846;4.078;2023-07-29T09:06:22;27.40;99.90
20658;DHT22;10488;50.846;4.078;2023-07-29T09:08:49;26.90;99.90
20658;DHT22;10488;50.846;4.078;2023-07-29T09:11:15;26.30;99.90
20658;DHT22;10488;50.846;4.078;2023-07-29T09:13:43;26.00;99.90
20658;DHT22;10488;50.846;4.078;2023-07-29T09:16:09;26.30;99.90
20658;DHT22;10488;50.846;4.078;2023-07-29T09:18:35;25.90;99.90
20658;DHT22;10488;50.846;4.078;2023-07-29T09:21:01;25.70;99.90
20658;DHT22;10488;50.846;4.078;2023-07-29T09:23:27;25.70;99.90
20658;DHT22;10488;50.846;4.078;2023-07-29T09:26:01;25.30;99.90
20658;DHT22;10488;50.846;4.078;2023-07-29T09:28:36;25.00;99.90
20658;DHT22;10488;50.846;4.078;2023-07-29T09:31:02;24.80;99.90
20658;DHT22;10488;50.846;4.078;2023-07-29T09:33:29;24.50;99.90
20658;DHT22;10488;50.846;4.078;2023-07-29T09:35:54;23.50;99.90
20658;DHT22;10488;50.846;4.078;2023-07-29T09:38:26;23.10;99.90
20658;DHT22;10488;50.846;4.078;2023-07-29T09:40:56;23.20;99.90
20658;DHT22;10488;50.846;4.078;2023-07-29T09:43:29;23.40;99.90
20658;DHT22;10488;50.846;4.078;2023-07-29T09:45:55;23.80;99.90
20658;DHT22;10488;50.846;4.078;2023-07-29T09:48:23;23.70;99.90
20658;DHT22;10488;50.846;4.078;2023-07-29T09:50:49;24.00;99.90
20658;DHT22;10488;50.846;4.078;2023-07-29T09:53:15;24.50;99.90
20658;DHT22;10488;50.846;4.078;2023-07-29T09:55:46;24.60;99.90
20658;DHT22;10488;50.846;4.078;2023-07-29T09:58:12;24.90;99.90
20658;DHT22;10488;50.846;4.078;2023-07-29T10:00:39;25.20;99.90
20658;DHT22;10488;50.846;4.078;2023-07-29T10:03:06;25.50;99.90
20658;DHT22;10488;50.846;4.078;2023-07-29T10:05:32;25.80;99.90
20658;DHT22;10488;50.846;4.078;2023-07-29T10:08:00;25.70;99.90
20658;DHT22;10488;50.846;4.078;2023-07-29T10:10:27;25.90;99.90
20658;DHT22;10488;50.846;4.078;2023-07-29T10:12:54;25.80;99.90
20658;DHT22;10488;50.846;4.078;2023-07-29T10:15:20;26.20;99.90
20658;DHT22;10488;50.846;4.078;2023-07-29T10:17:46;26.20;99.90
20658;DHT22;10488;50.846;4.078;2023-07-29T10:20:12;26.30;99.90
20658;DHT22;10488;50.846;4.078;2023-07-29T10:22:39;26.30;99.90
20658;DHT22;10488;50.846;4.078;2023-07-29T10:25:38;26.00;99.90
20658;DHT22;10488;50.846;4.078;2023-07-29T10:28:08;26.00;99.90
20658;DHT22;10488;50.846;4.078;2023-07-29T10:30:38;26.70;99.90
20658;DHT22;10488;50.846;4.078;2023-07-29T10:33:04;26.50;99.90
20658;DHT22;10488;50.846;4.078;2023-07-29T10:35:34;26.80;99.90
20658;DHT22;10488;50.846;4.078;2023-07-29T10:38:01;26.70;99.90
20658;DHT22;10488;50.846;4.078;2023-07-29T10:43:12;27.00;99.90
20658;DHT22;10488;50.846;4.078;2023-07-29T10:45:41;26.60;99.90
20658;DHT22;10488;50.846;4.078;2023-07-29T10:48:11;26.70;99.90
20658;DHT22;10488;50.846;4.078;2023-07-29T10:50:37;26.20;99.90
20658;DHT22;10488;50.846;4.078;2023-07-29T10:53:03;24.80;99.90
20658;DHT22;10488;50.846;4.078;2023-07-29T10:55:32;24.30;99.90
20658;DHT22;10488;50.846;4.078;2023-07-29T10:58:14;23.40;99.90
20658;DHT22;10488;50.846;4.078;2023-07-29T11:00:43;22.60;99.90
20658;DHT22;10488;50.846;4.078;2023-07-29T11:03:09;22.20;99.90
20658;DHT22;10488;50.846;4.078;2023-07-29T11:08:21;21.90;99.90
20658;DHT22;10488;50.846;4.078;2023-07-29T11:11:08;21.60;99.90
20658;DHT22;10488;50.846;4.078;2023-07-29T11:13:37;21.70;99.90
20658;DHT22;10488;50.846;4.078;2023-07-29T11:16:04;21.70;99.90
20658;DHT22;10488;50.846;4.078;2023-07-29T11:18:36;22.20;99.90
20658;DHT22;10488;50.846;4.078;2023-07-29T11:21:03;22.90;99.90
20658;DHT22;10488;50.846;4.078;2023-07-29T11:23:35;23.40;99.90
20658;DHT22;10488;50.846;4.078;2023-07-29T11:26:02;24.10;99.90
20658;DHT22;10488;50.846;4.078;2023-07-29T11:28:29;24.40;99.90
20658;DHT22;10488;50.846;4.078;2023-07-29T11:30:55;24.60;99.90
20658;DHT22;10488;50.846;4.078;2023-07-29T11:33:26;24.70;99.90
20658;DHT22;10488;50.846;4.078;2023-07-29T11:35:54;24.60;99.90
20658;DHT22;10488;50.846;4.078;2023-07-29T11:38:21;24.60;99.90
20658;DHT22;10488;50.846;4.078;2023-07-29T11:41:00;24.30;99.90
20658;DHT22;10488;50.846;4.078;2023-07-29T11:43:26;24.10;99.90
20658;DHT22;10488;50.846;4.078;2023-07-29T11:45:52;23.70;99.90
20658;DHT22;10488;50.846;4.078;2023-07-29T11:48:26;23.70;99.90
20658;DHT22;10488;50.846;4.078;2023-07-29T11:50:53;23.90;99.90
20658;DHT22;10488;50.846;4.078;2023-07-29T11:53:20;23.40;99.90
20658;DHT22;10488;50.846;4.078;2023-07-29T11:55:51;23.70;99.90
20658;DHT22;10488;50.846;4.078;2023-07-29T11:58:17;23.70;99.90
20658;DHT22;10488;50.846;4.078;2023-07-29T12:00:43;23.80;99.90
20658;DHT22;10488;50.846;4.078;2023-07-29T12:03:09;23.70;99.90
20658;DHT22;10488;50.846;4.078;2023-07-29T12:05:36;24.10;99.90
20658;DHT22;10488;50.846;4.078;2023-07-29T12:08:02;24.00;99.90
20658;DHT22;10488;50.846;4.078;2023-07-29T12:10:28;23.60;99.90
20658;DHT22;10488;50.846;4.078;2023-07-29T12:12:53;23.60;99.90
20658;DHT22;10488;50.846;4.078;2023-07-29T12:15:27;23.60;99.90
20658;DHT22;10488;50.846;4.078;2023-07-29T12:17:57;23.70;99.90
20658;DHT22;10488;50.846;4.078;2023-07-29T12:20:23;23.70;99.90
20658;DHT22;10488;50.846;4.078;2023-07-29T12:22:54;23.50;99.90
20658;DHT22;10488;50.846;4.078;2023-07-29T12:25:20;23.80;99.90
20658;DHT22;10488;50.846;4.078;2023-07-29T12:27:46;24.00;99.90
20658;DHT22;10488;50.846;4.078;2023-07-29T12:30:12;24.40;99.90
20658;DHT22;10488;50.846;4.078;2023-07-29T12:32:45;24.70;99.90
20658;DHT22;10488;50.846;4.078;2023-07-29T12:35:11;24.80;99.90
20658;DHT22;10488;50.846;4.078;2023-07-29T12:37:37;25.10;99.90
20658;DHT22;10488;50.846;4.078;2023-07-29T12:40:04;25.20;99.90
20658;DHT22;10488;50.846;4.078;2023-07-29T12:42:30;24.90;99.90
20658;DHT22;10488;50.846;4.078;2023-07-29T12:44:56;24.80;99.90
20658;DHT22;10488;50.846;4.078;2023-07-29T12:47:21;25.00;99.90
20658;DHT22;10488;50.846;4.078;2023-07-29T12:49:47;25.20;99.90
20658;DHT22;10488;50.846;4.078;2023-07-29T12:52:12;25.60;99.90
20658;DHT22;10488;50.846;4.078;2023-07-29T12:54:38;26.00;99.90
20658;DHT22;10488;50.846;4.078;2023-07-29T12:57:06;25.80;99.90
20658;DHT22;10488;50.846;4.078;2023-07-29T12:59:31;25.90;99.90
20658;DHT22;10488;50.846;4.078;2023-07-29T13:01:57;26.10;99.90
20658;DHT22;10488;50.846;4.078;2023-07-29T13:04:23;26.60;99.90
20658;DHT22;10488;50.846;4.078;2023-07-29T13:06:48;26.60;99.90
20658;DHT22;10488;50.846;4.078;2023-07-29T13:09:14;26.70;99.90
20658;DHT22;10488;50.846;4.078;2023-07-29T13:11:39;26.70;99.90
20658;DHT22;10488;50.846;4.078;2023-07-29T13:14:05;26.40;99.90
20658;DHT22;10488;50.846;4.078;2023-07-29T13:16:31;26.30;99.90
20658;DHT22;10488;50.846;4.078;2023-07-29T13:18:58;26.20;99.90
20658;DHT22;10488;50.846;4.078;2023-07-29T13:21:23;26.30;99.90
20658;DHT22;10488;50.846;4.078;2023-07-29T13:23:49;25.90;99.90
20658;DHT22;10488;50.846;4.078;2023-07-29T13:26:15;25.90;99.90
20658;DHT22;10488;50.846;4.078;2023-07-29T13:28:40;26.00;99.90
20658;DHT22;10488;50.846;4.078;2023-07-29T13:31:06;26.30;99.90
20658;DHT22;10488;50.846;4.078;2023-07-29T13:33:31;26.20;99.90
20658;DHT22;10488;50.846;4.078;2023-07-29T13:36:00;25.90;99.90
20658;DHT22;10488;50.846;4.078;2023-07-29T13:38:27;25.90;99.90
20658;DHT22;10488;50.846;4.078;2023-07-29T13:40:53;25.60;99.90
20658;DHT22;10488;50.846;4.078;2023-07-29T13:43:19;25.20;99.90
20658;DHT22;10488;50.846;4.078;2023-07-29T13:45:44;25.10;99.90
20658;DHT22;10488;50.846;4.078;2023-07-29T13:48:10;25.30;99.90
20658;DHT22;10488;50.846;4.078;2023-07-29T13:50:36;25.40;99.90
20658;DHT22;10488;50.846;4.078;2023-07-29T13:53:01;25.60;99.90
20658;DHT22;10488;50.846;4.078;2023-07-29T13:55:27;26.00;99.90
20658;DHT22;10488;50.846;4.078;2023-07-29T13:57:53;26.20;99.90
20658;DHT22;10488;50.846;4.078;2023-07-29T14:00:19;26.10;99.90
20658;DHT22;10488;50.846;4.078;2023-07-29T14:02:45;26.20;99.90
20658;DHT22;10488;50.846;4.078;2023-07-29T14:05:10;26.10;99.90
20658;DHT22;10488;50.846;4.078;2023-07-29T14:07:37;25.90;99.90
20658;DHT22;10488;50.846;4.078;2023-07-29T14:10:03;26.10;99.90
20658;DHT22;10488;50.846;4.078;2023-07-29T14:12:29;26.20;99.90
20658;DHT22;10488;50.846;4.078;2023-07-29T14:14:54;26.50;99.90
20658;DHT22;10488;50.846;4.078;2023-07-29T14:17:20;26.30;99.90
20658;DHT22;10488;50.846;4.078;2023-07-29T14:19:46;25.80;99.90
20658;DHT22;10488;50.846;4.078;2023-07-29T14:22:11;25.60;99.90
20658;DHT22;10488;50.846;4.078;2023-07-29T14:24:37;25.70;99.90
20658;DHT22;10488;50.846;4.078;2023-07-29T14:27:03;25.80;99.90
20658;DHT22;10488;50.846;4.078;2023-07-29T14:29:28;25.70;99.90
20658;DHT22;10488;50.846;4.078;2023-07-29T14:31:54;25.80;99.90
20658;DHT22;10488;50.846;4.078;2023-07-29T14:34:20;25.80;99.90
20658;DHT22;10488;50.846;4.078;2023-07-29T14:36:45;25.40;99.90
20658;DHT22;10488;50.846;4.078;2023-07-29T14:39:11;25.00;99.90
20658;DHT22;10488;50.846;4.078;2023-07-29T14:41:37;24.80;99.90
20658;DHT22;10488;50.846;4.078;2023-07-29T14:44:02;24.60;99.90
20658;DHT22;10488;50.846;4.078;2023-07-29T14:46:28;24.40;99.90
20658;DHT22;10488;50.846;4.078;2023-07-29T14:48:53;24.30;99.90
20658;DHT22;10488;50.846;4.078;2023-07-29T14:51:19;24.30;99.90
20658;DHT22;10488;50.846;4.078;2023-07-29T14:53:45;23.50;99.90
20658;DHT22;10488;50.846;4.078;2023-07-29T14:56:10;23.10;99.90
20658;DHT22;10488;50.846;4.078;2023-07-29T14:58:36;23.20;99.90
20658;DHT22;10488;50.846;4.078;2023-07-29T15:01:02;23.10;99.90
20658;DHT22;10488;50.846;4.078;2023-07-29T15:03:27;23.20;99.90
20658;DHT22;10488;50.846;4.078;2023-07-29T15:05:53;23.40;99.90
20658;DHT22;10488;50.846;4.078;2023-07-29T15:08:19;23.30;99.90
20658;DHT22;10488;50.846;4.078;2023-07-29T15:10:46;23.40;99.90
20658;DHT22;10488;50.846;4.078;2023-07-29T15:13:11;23.40;99.90
20658;DHT22;10488;50.846;4.078;2023-07-29T15:15:40;23.60;99.90
20658;DHT22;10488;50.846;4.078;2023-07-29T15:18:06;23.70;99.90
20658;DHT22;10488;50.846;4.078;2023-07-29T15:20:32;23.90;99.90
20658;DHT22;10488;50.846;4.078;2023-07-29T15:22:57;24.00;99.90
20658;DHT22;10488;50.846;4.078;2023-07-29T15:25:23;24.00;99.90
20658;DHT22;10488;50.846;4.078;2023-07-29T15:27:48;24.20;99.90
20658;DHT22;10488;50.846;4.078;2023-07-29T15:30:14;24.20;99.90
20658;DHT22;10488;50.846;4.078;2023-07-29T15:32:40;24.10;99.90